createdAt,value
2019-01-31T00:01:32.233Z,97298.89
2019-01-31T00:04:30.051Z,97294.16
2019-01-31T00:07:28.928Z,97295.73
2019-01-31T00:10:09.336Z,97300.43
2019-01-31T00:13:13.071Z,97299.41
2019-01-31T00:16:31.816Z,97301.48
2019-01-31T00:19:26.979Z,97294.69
2019-01-31T00:22:44.827Z,97305.41
2019-01-31T00:25:44.397Z,97304.62
2019-01-31T00:28:42.222Z,97305.13
2019-01-31T00:31:40.732Z,97305.65
2019-01-31T00:34:43.925Z,97305.94
2019-01-31T00:37:45.306Z,97303.05
2019-01-31T00:40:42.263Z,97306.98
2019-01-31T00:43:52.063Z,97308.53
2019-01-31T00:46:54.126Z,97307.23
2019-01-31T00:50:17.899Z,97308.02
2019-01-31T00:53:28.564Z,97310.36
2019-01-31T00:56:28.729Z,97314.53
2019-01-31T00:59:23.275Z,97316.88
2019-01-31T01:02:25.578Z,97315.30
2019-01-31T01:05:39.132Z,97319.75
2019-01-31T01:08:36.321Z,97319.48
2019-01-31T01:11:43.485Z,97318.66
2019-01-31T01:14:53.423Z,97324.69
2019-01-31T01:17:52.809Z,97325.48
2019-01-31T01:20:57.495Z,97328.86
2019-01-31T01:23:33.553Z,97327.83
2019-01-31T01:26:43.522Z,97330.16
2019-01-31T01:29:44.034Z,97335.14
2019-01-31T01:32:29.146Z,97338.53
2019-01-31T01:35:26.904Z,97340.63
2019-01-31T01:38:59.360Z,97339.58
2019-01-31T01:42:18.276Z,97338.02
2019-01-31T01:45:29.205Z,97333.32
2019-01-31T01:48:33.364Z,97334.64
2019-01-31T01:51:31.345Z,97338.81
2019-01-31T01:54:27.623Z,97333.07
2019-01-31T01:57:18.765Z,97338.05
2019-01-31T02:00:27.390Z,97336.72
2019-01-31T02:03:50.167Z,97332.55
2019-01-31T02:06:33.615Z,97336.47
2019-01-31T02:09:44.846Z,97333.86
2019-01-31T02:12:55.267Z,97331.25
2019-01-31T02:15:49.677Z,97329.67
2019-01-31T02:18:34.843Z,97332.02
2019-01-31T02:21:38.482Z,97334.88
2019-01-31T02:24:25.420Z,97332.00
2019-01-31T02:27:22.213Z,97320.77
2019-01-31T02:30:36.567Z,97329.41
2019-01-31T02:33:33.884Z,97324.17
2019-01-31T02:36:41.420Z,97317.37
2019-01-31T02:39:43.146Z,97323.38
2019-01-31T02:42:52.944Z,97321.02
2019-01-31T02:46:01.156Z,97312.92
2019-01-31T02:48:58.942Z,97309.78
2019-01-31T02:52:28.132Z,97314.23
2019-01-31T02:55:23.699Z,97313.17
2019-01-31T02:58:43.356Z,97321.00
2019-01-31T03:01:53.065Z,97316.58
2019-01-31T03:05:16.133Z,97320.75
2019-01-31T03:08:35.292Z,97319.45
2019-01-31T03:11:14.844Z,97315.80
2019-01-31T03:14:14.524Z,97316.83
2019-01-31T03:17:50.294Z,97321.05
2019-01-31T03:21:10.892Z,97323.12
2019-01-31T03:24:29.069Z,97319.17
2019-01-31T03:27:28.438Z,97321.00
2019-01-31T03:30:38.697Z,97320.48
2019-01-31T03:33:22.798Z,97322.81
2019-01-31T03:36:29.974Z,97323.86
2019-01-31T03:39:40.281Z,97322.03
2019-01-31T03:42:44.075Z,97319.95
2019-01-31T03:45:39.297Z,97321.53
2019-01-31T03:48:44.060Z,97329.63
2019-01-31T03:52:03.122Z,97337.46
2019-01-31T03:54:51.984Z,97333.00
2019-01-31T03:57:57.500Z,97330.66
2019-01-31T04:01:20.765Z,97333.53
2019-01-31T04:04:02.719Z,97331.15
2019-01-31T04:06:35.963Z,97339.50
2019-01-31T04:09:10.955Z,97339.77
2019-01-31T04:11:41.189Z,97338.96
2019-01-31T04:14:11.518Z,97340.27
2019-01-31T04:16:41.873Z,97341.03
2019-01-31T04:19:13.663Z,97340.25
2019-01-31T04:21:43.989Z,97340.51
2019-01-31T04:24:15.788Z,97341.28
2019-01-31T04:26:47.446Z,97344.92
2019-01-31T04:29:19.700Z,97347.30
2019-01-31T04:31:50.992Z,97348.87
2019-01-31T04:34:22.304Z,97346.49
2019-01-31T04:36:52.618Z,97344.41
2019-01-31T04:39:22.888Z,97333.77
2019-01-31T04:41:53.180Z,97339.98
2019-01-31T04:44:24.955Z,97338.44
2019-01-31T04:46:56.578Z,97338.42
2019-01-31T04:49:27.263Z,97338.21
2019-01-31T04:51:57.536Z,97337.38
2019-01-31T04:54:27.798Z,97340.52
2019-01-31T04:56:59.362Z,97340.25
2019-01-31T04:59:29.666Z,97339.97
2019-01-31T05:02:02.303Z,97335.77
2019-01-31T05:04:33.044Z,97338.42
2019-01-31T05:07:04.468Z,97343.11
2019-01-31T05:09:36.468Z,97342.84
2019-01-31T05:12:06.903Z,97343.09
2019-01-31T05:14:37.260Z,97341.03
2019-01-31T05:17:07.542Z,97338.92
2019-01-31T05:19:39.467Z,97346.73
2019-01-31T05:22:09.846Z,97342.57
2019-01-31T05:24:40.149Z,97351.70
2019-01-31T05:27:15.468Z,97357.43
2019-01-31T05:29:45.848Z,97348.56
2019-01-31T05:32:16.266Z,97353.52
2019-01-31T05:34:46.682Z,97353.21
2019-01-31T05:37:16.995Z,97353.25
2019-01-31T05:39:47.270Z,97359.23
2019-01-31T05:42:17.668Z,97361.05
2019-01-31T05:44:48.303Z,97357.69
2019-01-31T05:47:20.396Z,97361.60
2019-01-31T05:49:50.708Z,97363.97
2019-01-31T05:52:21.509Z,97365.79
2019-01-31T05:54:51.754Z,97365.28
2019-01-31T05:57:22.106Z,97370.23
2019-01-31T05:59:52.810Z,97369.44
2019-01-31T06:02:23.820Z,97372.56
2019-01-31T06:04:54.062Z,97370.73
2019-01-31T06:07:26.793Z,97371.81
2019-01-31T06:09:57.330Z,97366.04
2019-01-31T06:12:27.928Z,97375.91
2019-01-31T06:14:58.298Z,97373.09
2019-01-31T06:17:28.880Z,97371.49
2019-01-31T06:19:59.183Z,97369.67
2019-01-31T06:22:29.633Z,97367.59
2019-01-31T06:25:00.017Z,97376.70
2019-01-31T06:27:30.732Z,97368.34
2019-01-31T06:30:03.898Z,97380.33
2019-01-31T06:32:35.659Z,97377.19
2019-01-31T06:35:08.384Z,97380.01
2019-01-31T06:37:38.690Z,97381.94
2019-01-31T06:40:11.642Z,97385.59
2019-01-31T06:42:41.923Z,97388.77
2019-01-31T06:45:15.218Z,97386.08
2019-01-31T06:47:45.743Z,97387.65
2019-01-31T06:50:16.539Z,97385.81
2019-01-31T06:52:47.013Z,97389.98
2019-01-31T06:55:17.862Z,97391.57
2019-01-31T06:57:48.492Z,97394.67
2019-01-31T07:00:22.474Z,97392.09
2019-01-31T07:02:52.750Z,97393.34
2019-01-31T07:05:23.032Z,97394.15
2019-01-31T07:07:53.353Z,97400.66
2019-01-31T07:10:26.363Z,97397.48
2019-01-31T07:12:56.671Z,97398.55
2019-01-31T07:15:27.607Z,97402.22
2019-01-31T07:17:59.289Z,97409.55
2019-01-31T07:20:34.396Z,97402.75
2019-01-31T07:23:05.803Z,97404.83
2019-01-31T07:25:36.278Z,97406.44
2019-01-31T07:28:21.462Z,97404.63
2019-01-31T07:30:52.229Z,97409.56
2019-01-31T07:33:22.624Z,97410.38
2019-01-31T07:35:52.909Z,97412.45
2019-01-31T07:38:23.186Z,97411.39
2019-01-31T07:40:53.456Z,97417.39
2019-01-31T07:43:23.968Z,97419.78
2019-01-31T07:45:54.203Z,97418.23
2019-01-31T07:48:24.541Z,97417.95
2019-01-31T07:50:54.982Z,97420.13
2019-01-31T07:53:25.239Z,97420.08
2019-01-31T07:55:55.493Z,97423.81
2019-01-31T07:58:25.795Z,97421.42
2019-01-31T08:01:03.326Z,97424.55
2019-01-31T08:03:40.822Z,97435.27
2019-01-31T08:06:18.166Z,97425.41
2019-01-31T08:08:52.700Z,97436.05
2019-01-31T08:11:23.774Z,97437.11
2019-01-31T08:14:01.798Z,97432.70
2019-01-31T08:16:39.742Z,97429.59
2019-01-31T08:19:13.763Z,97424.87
2019-01-31T08:21:46.339Z,97438.28
2019-01-31T08:24:16.760Z,97430.45
2019-01-31T08:26:50.414Z,97435.67
2019-01-31T08:29:20.946Z,97433.07
2019-01-31T08:31:51.388Z,97432.04
2019-01-31T08:34:23.220Z,97437.28
2019-01-31T08:36:53.521Z,97433.64
2019-01-31T08:39:23.954Z,97433.92
2019-01-31T08:42:03.497Z,97434.94
2019-01-31T08:44:26.348Z,97433.84
2019-01-31T08:46:56.751Z,97437.00
2019-01-31T08:49:28.335Z,97439.81
2019-01-31T08:51:58.582Z,97434.86
2019-01-31T08:54:28.879Z,97440.82
2019-01-31T08:57:01.459Z,97442.02
2019-01-31T08:59:34.752Z,97437.72
2019-01-31T09:02:05.193Z,97440.33
2019-01-31T09:04:35.966Z,97443.01
2019-01-31T09:07:06.315Z,97446.03
2019-01-31T09:09:36.792Z,97437.73
2019-01-31T09:12:14.948Z,97437.84
2019-01-31T09:14:39.643Z,97437.28
2019-01-31T09:17:10.100Z,97447.99
2019-01-31T09:19:40.339Z,97447.19
2019-01-31T09:22:34.689Z,97445.53
2019-01-31T09:25:32.061Z,97443.42
2019-01-31T09:28:46.233Z,97449.84
2019-01-31T09:32:05.101Z,97447.71
2019-01-31T09:35:22.092Z,97444.84
2019-01-31T09:38:35.517Z,97445.04
2019-01-31T09:41:29.927Z,97445.27
2019-01-31T09:44:35.712Z,97447.90
2019-01-31T09:48:07.877Z,97446.77
2019-01-31T09:51:26.434Z,97451.00
2019-01-31T09:54:31.390Z,97446.08
2019-01-31T09:57:26.287Z,97448.19
2019-01-31T10:00:47.564Z,97441.39
2019-01-31T10:04:02.731Z,97428.83
2019-01-31T10:07:06.102Z,97417.33
2019-01-31T10:10:05.737Z,97411.91
2019-01-31T10:13:13.364Z,97417.33
2019-01-31T10:16:24.739Z,97414.23
2019-01-31T10:19:16.967Z,97418.22
2019-01-31T10:22:34.283Z,97433.36
2019-01-31T10:25:46.990Z,97420.47
2019-01-31T10:28:54.101Z,97420.78
2019-01-31T10:31:51.043Z,97403.95
2019-01-31T10:34:34.048Z,97405.59
2019-01-31T10:37:30.415Z,97409.19
2019-01-31T10:40:16.132Z,97417.53
2019-01-31T10:43:24.745Z,97412.54
2019-01-31T10:46:08.260Z,97411.22
2019-01-31T10:49:00.503Z,97410.03
2019-01-31T10:52:10.532Z,97411.13
2019-01-31T10:55:22.880Z,97392.10
2019-01-31T10:58:36.303Z,97395.14
2019-01-31T11:02:03.234Z,97393.69
2019-01-31T11:05:04.058Z,97384.66
2019-01-31T11:08:12.834Z,97385.13
2019-01-31T11:11:15.491Z,97394.86
2019-01-31T11:14:29.942Z,97396.95
2019-01-31T11:17:54.303Z,97392.58
2019-01-31T11:21:12.742Z,97390.23
2019-01-31T11:24:22.105Z,97393.86
2019-01-31T11:27:44.203Z,97391.81
2019-01-31T11:30:39.671Z,97403.47
2019-01-31T11:34:00.243Z,97384.43
2019-01-31T11:36:49.493Z,97392.88
2019-01-31T11:39:56.615Z,97389.86
2019-01-31T11:42:55.843Z,97394.87
2019-01-31T11:46:10.924Z,97382.41
2019-01-31T11:49:21.555Z,97379.38
2019-01-31T11:52:51.004Z,97379.92
2019-01-31T11:55:27.584Z,97387.47
2019-01-31T11:58:24.255Z,97378.90
2019-01-31T12:00:54.501Z,97378.44
2019-01-31T12:03:25.168Z,97376.91
2019-01-31T12:05:56.948Z,97370.34
2019-01-31T12:08:28.449Z,97373.75
2019-01-31T12:10:58.722Z,97379.66
2019-01-31T12:13:29.502Z,97377.20
2019-01-31T12:16:00.151Z,97373.85
2019-01-31T12:18:31.618Z,97371.39
2019-01-31T12:21:01.868Z,97364.97
2019-01-31T12:23:32.524Z,97364.60
2019-01-31T12:26:06.190Z,97356.50
2019-01-31T12:28:36.613Z,97353.53
2019-01-31T12:31:06.982Z,97352.44
2019-01-31T12:33:37.308Z,97354.72
2019-01-31T12:36:08.729Z,97345.47
2019-01-31T12:38:41.337Z,97346.23
2019-01-31T12:41:11.809Z,97341.08
2019-01-31T12:43:44.253Z,97340.92
2019-01-31T12:46:14.820Z,97339.48
2019-01-31T12:48:45.213Z,97331.09
2019-01-31T12:51:15.487Z,97324.23
2019-01-31T12:53:45.866Z,97317.94
2019-01-31T12:56:16.087Z,97324.88
2019-01-31T12:58:46.352Z,97332.63
2019-01-31T13:01:16.522Z,97333.07
2019-01-31T13:03:47.574Z,97332.30
2019-01-31T13:06:18.273Z,97330.52
2019-01-31T13:08:48.823Z,97332.34
2019-01-31T13:11:19.500Z,97320.97
2019-01-31T13:13:50.451Z,97316.80
2019-01-31T13:16:20.933Z,97311.61
2019-01-31T13:18:51.301Z,97306.00
2019-01-31T13:21:21.541Z,97317.86
2019-01-31T13:23:53.276Z,97310.72
2019-01-31T13:26:23.730Z,97305.55
2019-01-31T13:28:54.235Z,97310.03
2019-01-31T13:31:24.571Z,97308.64
2019-01-31T13:33:55.114Z,97315.85
2019-01-31T13:36:25.693Z,97317.19
2019-01-31T13:38:56.135Z,97323.30
2019-01-31T13:41:26.450Z,97320.41
2019-01-31T13:43:57.881Z,97315.50
2019-01-31T13:46:28.302Z,97326.36
2019-01-31T13:48:59.098Z,97317.66
2019-01-31T13:51:29.653Z,97316.50
2019-01-31T13:54:00.022Z,97324.08
2019-01-31T13:56:30.245Z,97317.29
2019-01-31T13:59:00.591Z,97319.53
2019-01-31T14:01:30.902Z,97321.59
2019-01-31T14:04:01.293Z,97314.84
2019-01-31T14:06:31.496Z,97332.69
2019-01-31T14:09:02.003Z,97330.14
2019-01-31T14:11:32.335Z,97339.98
2019-01-31T14:14:09.206Z,97341.66
2019-01-31T14:16:35.023Z,97337.78
2019-01-31T14:19:05.245Z,97340.03
2019-01-31T14:21:35.428Z,97338.39
2019-01-31T14:24:06.305Z,97338.73
2019-01-31T14:26:36.542Z,97341.05
2019-01-31T14:29:07.379Z,97341.61
2019-01-31T14:31:39.452Z,97344.09
2019-01-31T14:34:09.736Z,97345.67
2019-01-31T14:36:40.012Z,97351.09
2019-01-31T14:39:11.218Z,97349.97
2019-01-31T14:41:42.837Z,97351.80
2019-01-31T14:44:20.610Z,97351.66
2019-01-31T14:46:45.862Z,97347.53
2019-01-31T14:49:16.645Z,97352.23
2019-01-31T14:51:46.979Z,97353.80
2019-01-31T14:54:17.452Z,97352.45
2019-01-31T14:56:47.653Z,97343.06
2019-01-31T14:59:18.221Z,97350.25
2019-01-31T15:01:51.247Z,97348.89
2019-01-31T15:04:21.837Z,97346.77
2019-01-31T15:06:52.244Z,97344.20
2019-01-31T15:09:22.864Z,97342.11
2019-01-31T15:11:53.425Z,97343.26
2019-01-31T15:14:31.592Z,97340.14
2019-01-31T15:16:56.184Z,97342.96
2019-01-31T15:19:26.459Z,97341.78
2019-01-31T15:21:56.881Z,97339.22
2019-01-31T15:24:28.709Z,97335.14
2019-01-31T15:26:59.031Z,97331.77
2019-01-31T15:29:30.442Z,97337.16
2019-01-31T15:32:03.217Z,97332.66
2019-01-31T15:34:33.501Z,97334.77
2019-01-31T15:37:03.820Z,97339.28
2019-01-31T15:39:34.225Z,97337.36
2019-01-31T15:42:04.450Z,97339.55
2019-01-31T15:44:43.077Z,97337.62
2019-01-31T15:47:06.724Z,97340.36
2019-01-31T15:49:37.623Z,97337.05
2019-01-31T15:52:08.293Z,97343.13
2019-01-31T15:54:39.488Z,97345.81
2019-01-31T15:57:16.318Z,97348.81
2019-01-31T15:59:42.054Z,97342.30
2019-01-31T16:02:14.700Z,97346.04
2019-01-31T16:04:45.058Z,97346.75
2019-01-31T16:07:15.371Z,97353.52
2019-01-31T16:09:45.618Z,97344.54
2019-01-31T16:12:16.296Z,97345.95
2019-01-31T16:14:54.513Z,97346.83
2019-01-31T16:17:18.957Z,97339.73
2019-01-31T16:19:49.156Z,97341.09
2019-01-31T16:22:20.981Z,97337.35
2019-01-31T16:24:51.331Z,97331.07
2019-01-31T16:27:21.535Z,97333.56
2019-01-31T16:29:52.044Z,97337.64
2019-01-31T16:32:23.419Z,97342.93
2019-01-31T16:34:53.681Z,97342.75
2019-01-31T16:37:25.387Z,97341.55
2019-01-31T16:39:55.776Z,97332.13
2019-01-31T16:42:26.061Z,97341.06
2019-01-31T16:45:06.331Z,97336.38
2019-01-31T16:47:28.531Z,97335.08
2019-01-31T16:49:58.776Z,97338.20
2019-01-31T16:52:29.007Z,97335.64
2019-01-31T16:55:00.692Z,97331.55
2019-01-31T16:57:33.208Z,97325.23
2019-01-31T17:00:04.661Z,97322.61
2019-01-31T17:02:35.157Z,97321.00
2019-01-31T17:05:06.328Z,97323.59
2019-01-31T17:07:37.804Z,97323.58
2019-01-31T17:10:08.433Z,97321.81
2019-01-31T17:12:38.661Z,97331.84
2019-01-31T17:15:17.683Z,97323.22
2019-01-31T17:17:42.042Z,97327.69
2019-01-31T17:20:19.190Z,97328.25
2019-01-31T17:22:50.533Z,97322.00
2019-01-31T17:25:21.310Z,97326.95
2019-01-31T17:27:51.693Z,97322.31
2019-01-31T17:30:24.625Z,97321.75
2019-01-31T17:32:55.068Z,97313.35
2019-01-31T17:35:25.711Z,97305.50
2019-01-31T17:37:56.023Z,97319.34
2019-01-31T17:40:29.964Z,97309.44
2019-01-31T17:43:00.182Z,97309.98
2019-01-31T17:45:31.073Z,97311.25
2019-01-31T17:48:01.786Z,97307.84
2019-01-31T17:50:32.011Z,97308.92
2019-01-31T17:53:02.255Z,97309.16
2019-01-31T17:55:32.721Z,97309.95
2019-01-31T17:58:02.944Z,97308.94
2019-01-31T18:00:53.924Z,97306.82
2019-01-31T18:03:25.289Z,97303.91
2019-01-31T18:05:55.628Z,97312.77
2019-01-31T18:08:27.121Z,97320.09
2019-01-31T18:10:57.649Z,97318.53
2019-01-31T18:13:27.992Z,97329.77
2019-01-31T18:15:58.432Z,97329.49
2019-01-31T18:18:29.215Z,97320.52
2019-01-31T18:20:59.678Z,97326.61
2019-01-31T18:23:29.915Z,97317.47
2019-01-31T18:26:00.337Z,97325.84
2019-01-31T18:28:30.575Z,97317.30
2019-01-31T18:31:00.916Z,97320.61
2019-01-31T18:33:31.201Z,97323.55
2019-01-31T18:36:01.562Z,97325.16
2019-01-31T18:38:31.736Z,97330.41
2019-01-31T18:41:02.258Z,97323.15
2019-01-31T18:43:32.733Z,97318.40
2019-01-31T18:46:03.095Z,97324.98
2019-01-31T18:48:33.394Z,97323.69
2019-01-31T18:51:03.805Z,97319.02
2019-01-31T18:53:34.170Z,97321.64
2019-01-31T18:56:05.017Z,97319.83
2019-01-31T18:58:35.595Z,97325.35
2019-01-31T19:01:06.383Z,97318.30
2019-01-31T19:03:36.775Z,97331.89
2019-01-31T19:06:07.196Z,97323.53
2019-01-31T19:08:37.666Z,97322.75
2019-01-31T19:11:07.876Z,97319.61
2019-01-31T19:13:38.293Z,97316.48
2019-01-31T19:16:09.129Z,97315.71
2019-01-31T19:18:39.670Z,97314.15
2019-01-31T19:21:11.284Z,97320.42
2019-01-31T19:23:41.944Z,97315.72
2019-01-31T19:26:12.272Z,97322.28
2019-01-31T19:28:42.536Z,97321.22
2019-01-31T19:31:13.055Z,97334.81
2019-01-31T19:33:44.538Z,97323.83
2019-01-31T19:36:14.865Z,97323.33
2019-01-31T19:38:45.080Z,97326.49
2019-01-31T19:41:15.280Z,97314.72
2019-01-31T19:43:45.504Z,97318.89
2019-01-31T19:46:17.391Z,97325.42
2019-01-31T19:48:48.027Z,97329.90
2019-01-31T19:51:19.151Z,97324.67
2019-01-31T19:53:49.467Z,97323.89
2019-01-31T19:56:19.787Z,97316.84
2019-01-31T19:58:50.224Z,97320.23
2019-01-31T20:01:20.454Z,97318.89
2019-01-31T20:03:50.695Z,97326.26
2019-01-31T20:06:21.460Z,97316.59
2019-01-31T20:08:53.727Z,97313.95
2019-01-31T20:11:25.198Z,97307.97
2019-01-31T20:13:55.416Z,97306.91
2019-01-31T20:16:29.064Z,97296.73
2019-01-31T20:18:57.711Z,97306.38
2019-01-31T20:21:28.209Z,97304.83
2019-01-31T20:23:58.882Z,97302.47
2019-01-31T20:26:29.164Z,97305.88
2019-01-31T20:28:59.464Z,97297.52
2019-01-31T20:31:30.142Z,97296.77
2019-01-31T20:34:00.397Z,97290.23
2019-01-31T20:36:30.579Z,97303.81
2019-01-31T20:39:00.904Z,97299.89
2019-01-31T20:41:32.116Z,97303.02
2019-01-31T20:44:02.423Z,97298.31
2019-01-31T20:46:40.040Z,97303.30
2019-01-31T20:49:06.004Z,97296.48
2019-01-31T20:51:36.257Z,97296.25
2019-01-31T20:54:06.758Z,97297.03
2019-01-31T20:56:37.264Z,97294.42
2019-01-31T20:59:07.456Z,97288.95
2019-01-31T21:01:37.853Z,97286.06
2019-01-31T21:04:08.156Z,97289.74
2019-01-31T21:06:41.542Z,97288.68
2019-01-31T21:09:11.905Z,97285.55
2019-01-31T21:11:42.483Z,97281.91
2019-01-31T21:14:12.731Z,97277.71
2019-01-31T21:16:51.224Z,97271.98
2019-01-31T21:19:15.376Z,97282.70
2019-01-31T21:21:45.676Z,97274.86
2019-01-31T21:24:16.128Z,97283.20
2019-01-31T21:26:46.469Z,97282.42
2019-01-31T21:29:16.705Z,97277.98
2019-01-31T21:31:48.338Z,97268.58
2019-01-31T21:34:18.549Z,97268.05
2019-01-31T21:36:48.878Z,97269.12
2019-01-31T21:39:19.139Z,97262.31
2019-01-31T21:41:49.356Z,97264.69
2019-01-31T21:44:19.641Z,97262.34
2019-01-31T21:46:49.991Z,97258.67
2019-01-31T21:49:21.475Z,97248.23
2019-01-31T21:51:51.766Z,97252.66
2019-01-31T21:54:23.657Z,97249.53
2019-01-31T21:56:53.929Z,97248.74
2019-01-31T21:59:24.162Z,97244.83
2019-01-31T22:01:54.357Z,97233.08
2019-01-31T22:04:24.574Z,97228.64
2019-01-31T22:06:54.800Z,97237.27
2019-01-31T22:09:25.055Z,97233.34
2019-01-31T22:11:55.241Z,97224.22
2019-01-31T22:14:25.464Z,97231.53
2019-01-31T22:16:55.687Z,97225.00
2019-01-31T22:19:26.148Z,97224.48
2019-01-31T22:21:56.388Z,97220.57
2019-01-31T22:24:26.587Z,97224.45
2019-01-31T22:26:56.813Z,97214.56
2019-01-31T22:29:27.004Z,97223.95
2019-01-31T22:31:57.223Z,97220.30
2019-01-31T22:34:27.695Z,97208.80
2019-01-31T22:36:57.937Z,97215.59
2019-01-31T22:39:28.119Z,97214.29
2019-01-31T22:41:58.379Z,97212.19
2019-01-31T22:44:28.559Z,97216.34
2019-01-31T22:46:58.770Z,97221.06
2019-01-31T22:49:29.075Z,97215.31
2019-01-31T22:51:59.335Z,97218.95
2019-01-31T22:54:29.554Z,97212.95
2019-01-31T22:56:59.758Z,97203.30
2019-01-31T22:59:29.969Z,97198.63
2019-01-31T23:02:05.909Z,97192.57
2019-01-31T23:04:36.169Z,97193.91
2019-01-31T23:07:06.473Z,97195.70
2019-01-31T23:09:36.663Z,97194.43
2019-01-31T23:12:07.041Z,97192.33
2019-01-31T23:14:37.272Z,97183.71
2019-01-31T23:17:07.536Z,97181.61
2019-01-31T23:19:37.987Z,97172.47
2019-01-31T23:22:08.145Z,97181.09
2019-01-31T23:24:38.339Z,97166.73
2019-01-31T23:27:08.640Z,97152.14
2019-01-31T23:29:38.870Z,97159.69
2019-01-31T23:32:09.180Z,97167.48
2019-01-31T23:34:39.368Z,97167.53
2019-01-31T23:37:09.636Z,97146.12
2019-01-31T23:39:39.841Z,97162.06
2019-01-31T23:42:10.050Z,97155.03
2019-01-31T23:44:40.247Z,97147.44
2019-01-31T23:47:10.658Z,97146.66
2019-01-31T23:49:40.932Z,97137.78
2019-01-31T23:52:11.643Z,97133.09
2019-01-31T23:54:41.928Z,97137.55
2019-01-31T23:57:12.094Z,97133.88
2019-01-31T23:59:42.254Z,97135.45
